This is the latest recevied weather packets stored in our database for station/object MB7IWY-13. If no packets are shown the sender has not sent any weather packets the latest 10 day(s).
| Time | Temp. | Humidity | Pressure | Rain* | Wind** | Luminosity | Snow |
|---|---|---|---|---|---|---|---|
| 1777743902 | 15.56° C | 68% | 1033.8 hPa | 0 mm | - | 0 W/m² | - |
| 1777742282 | 16.11° C | 66% | 1033.8 hPa | 0 mm | - | 0 W/m² | - |
| 1777739222 | 17.22° C | 62% | 1034.9 hPa | 0 mm | - | 0 W/m² | - |
| 1777738682 | 17.22° C | 62% | 1034.9 hPa | 0 mm | - | 0 W/m² | - |
| 1777737602 | 16.67° C | 62% | 1034.9 hPa | 0 mm | - | 0 W/m² | - |
| 1777736702 | 16.67° C | 62% | 1034.9 hPa | 0 mm | - | 0 W/m² | - |
| 1777733642 | 16.67° C | 62% | 1034.9 hPa | 0 mm | - | 0 W/m² | - |
| 1777732022 | 16.11° C | 64% | 1035.9 hPa | 0 mm | - | 0 W/m² | - |
| 1777730063 | 15.56° C | 67% | 1035.9 hPa | 0 mm | - | 0 W/m² | - |
| 1777728962 | 15.56° C | 67% | 1035.9 hPa | 0 mm | - | 0 W/m² | - |
| 1777728422 | 15.56° C | 68% | 1036.9 hPa | 0 mm | - | 0 W/m² | - |
| 1777724822 | 14.44° C | 71% | 1036.9 hPa | 0 mm | - | 0 W/m² | - |
| 1777714562 | 12.22° C | 79% | 1037.9 hPa | 0 mm | - | 0 W/m² | - |
| 1777710962 | 11.11° C | 83% | 1037.9 hPa | 0 mm | - | 0 W/m² | - |
| 1777707362 | 10° C | 86% | 1037.9 hPa | 0 mm | - | 0 W/m² | - |
| 1777704863 | 9.44° C | 90% | 1037.9 hPa | 0 mm | - | 0 W/m² | - |
| 1777703222 | 8.89° C | 90% | 1037.9 hPa | 0 mm | - | 0 W/m² | - |
| 1777700702 | 8.89° C | 91% | 1037.9 hPa | 0 mm | - | 0 W/m² | - |
| 1777700162 | 8.89° C | 91% | 1037.9 hPa | 0 mm | - | 0 W/m² | - |
| 1777698563 | 8.89° C | 92% | 1037.9 hPa | 0 mm | - | 0 W/m² | - |
| 1777698002 | 8.89° C | 93% | 1037.9 hPa | 0 mm | - | 0 W/m² | - |
| 1777694423 | 8.89° C | 93% | 1037.9 hPa | 0 mm | - | 0 W/m² | - |
| 1777694042 | 8.89° C | 93% | 1037.9 hPa | 0 mm | - | 0 W/m² | - |
| 1777693502 | 8.89° C | 93% | 1037.9 hPa | 0 mm | - | 0 W/m² | - |
| 1777689902 | 9.44° C | 91% | 1037.9 hPa | 0 mm | - | 0 W/m² | - |
* Rain latest hour (hover to see other rain measurements)
** Current wind speed in m/s (hover to see current wind gust speed)